Hartford, Connecticut
Traffic Map
Current Weather Conditions
Hartford, Connecticut
Clear
Clear
22°
Feels Like: 22°
Wind Chill: 22° Ceiling: Unl
Heat Index: 22° Visibility: 10mi
Dew Point: Wind: 12mph
Humidity: 30% Direction: 220° (SW)
Pressure: 30.29in Gusts: 21mph
Raw Report DataKHFD 241453Z 22010G18KT 190V260 10SM CLR 22/04 A3029 RMK AO2 SLP256 T02220039 58012
Traffic Incident Summary
Active as of:
Severity:
Category:
InformationThere was an issue retrieving the traffic information for this location. Please try a different location or try again shortly.
Advertisements
Track Severe Weather on mobile